CYXC

Details ICAO CYXC (YXC)
Name CANADIAN ROCKIES INTL
Region Canada
Timezone America/Edmonton (UTC-7.0)
Plans Departing 29
Arriving 45
Stats Elevation 3,084 ft / 940 m (AMSL)
Location 49.612121° -115.782055°
Runways 1
Magnetic Variation 14.454° E
Sunrise 2017-12-17 15:36:26 UTC / 2017-12-17 08:36:26 Local
Sunset 2017-12-17 23:45:06 UTC / 2017-12-17 16:45:06 Local
Advertisement - Login to hide

Runways

ID Width Length Bearing (true) Bearing (mag) Surface Threshold Offset Overrun Length
16 150 ft / 46 m 8,000 ft / 2,438 m 179.16° 164.71° Asphalt 780 ft / 238 m 0 ft / 0 m
34 150 ft / 46 m 8,000 ft / 2,438 m 359.16° 344.71° Asphalt 0 ft / 0 m 0 ft / 0 m

Approach Navaids

Runway Type Ident Frequency Range Bearing (true) Bearing (mag) Slope Elevation
16 Localiser IXC 110.30 MHz 18 nm / 33 km 179.82° 165.37° - 3,058 ft / 932 m (AMSL)
16 Glidescope IXC 110.30 MHz 10 nm / 19 km 179.16° 164.70° 3.00° 3,015 ft / 919 m (AMSL)

Map

Weather


0- 5 10 15 20 25 30 35+ Temperature / ° C

Clouds and Precipitation
Forecast for 2017-12-17 12:00 UTC. Updated an hour ago

Ground ~20,000 ft ~40,000 ft Winds

METAR

CYXC 170800Z VRB02KT 15SM FEW002 SCT087 BKN200 M09/M10 A3006 RMK SF1AC3CI1 SLP228

TAF

TAF CYXC 170638Z 1707/1719 VRB03KT P6SM FEW002 SCT080 BKN200 TEMPO 1707/1719 SCT002 OVC080 RMK NXT FCST BY 171300Z

Frequencies

Tower 122.30 MHz MF
Warning: Do not use this data for real-world aviation or navigation. No guarantee of current accuracy is given.